Time;durP1;ratioP1;P1;durP2;ratioP2;P2;SDS_P1;SDS_P2;PMS_P1;PMS_P2;Temp;Humidity;BMP_temperature;BMP_pressure;BME280_temperature;BME280_humidity;BME280_pressure;Samples;Min_cycle;Max_cycle;Signal;HPM_P1;HPM_P2
2022/08/21 00:00:47;;;;;;;;;4.00;4.00;;;;;21.89;79.24;101469.50;5015706;28;45482;-76
2022/08/21 00:03:13;;;;;;;;;3.67;3.67;;;;;21.88;79.54;101472.22;5014905;28;45530;-74
2022/08/21 00:05:43;;;;;;;;;4.00;4.00;;;;;21.81;80.00;101458.03;5029160;28;45454;-73
2022/08/21 00:08:09;;;;;;;;;4.33;4.33;;;;;21.82;80.07;101470.56;5015444;28;45369;-73
2022/08/21 00:10:34;;;;;;;;;0.00;0.00;;;;;21.78;80.08;101460.78;5015442;28;45216;-74
2022/08/21 00:13:00;;;;;;;;;9.33;5.67;;;;;21.68;80.55;101467.34;5015207;28;47633;-75
2022/08/21 00:15:29;;;;;;;;;6.33;6.33;;;;;21.66;80.77;101470.06;5014723;28;45670;-75
2022/08/21 00:17:55;;;;;;;;;4.33;4.00;;;;;21.59;81.42;101472.94;5010775;28;45620;-74
2022/08/21 00:20:21;;;;;;;;;6.00;4.67;;;;;21.49;81.92;101464.22;5011155;28;45401;-73
2022/08/21 00:22:48;;;;;;;;;7.00;4.33;;;;;21.46;82.00;101466.97;5008853;28;46167;-72
2022/08/21 00:25:14;;;;;;;;;7.00;4.00;;;;;21.33;82.73;101455.66;5013053;28;45414;-73
2022/08/21 00:27:41;;;;;;;;;6.33;4.00;;;;;21.31;83.34;101462.88;5013202;28;45506;-75
2022/08/21 00:30:08;;;;;;;;;5.00;3.67;;;;;21.23;84.05;101453.16;5013468;28;45718;-73
2022/08/21 00:32:36;;;;;;;;;5.00;5.00;;;;;21.15;84.64;101461.41;5013607;28;45622;-73
2022/08/21 00:35:01;;;;;;;;;3.33;3.33;;;;;21.08;85.65;101451.72;5013145;28;45642;-73
2022/08/21 00:37:26;;;;;;;;;3.33;3.33;;;;;21.02;85.93;101452.75;5012758;28;45524;-73
2022/08/21 00:39:52;;;;;;;;;6.00;4.00;;;;;21.03;86.69;101456.31;5007531;28;45284;-75
2022/08/21 00:42:19;;;;;;;;;5.67;5.00;;;;;20.98;86.92;101455.53;5015032;28;46397;-73
2022/08/21 00:44:47;;;;;;;;;5.00;3.00;;;;;20.90;87.18;101443.16;5015288;28;45338;-73
2022/08/21 00:47:12;;;;;;;;;5.00;5.00;;;;;20.92;87.52;101451.16;5015385;28;47421;-73
2022/08/21 00:49:39;;;;;;;;;7.33;4.33;;;;;20.90;88.06;101448.53;5014182;28;45367;-72
2022/08/21 00:52:07;;;;;;;;;7.00;4.33;;;;;20.87;88.33;101443.22;5015454;28;46205;-73
2022/08/21 00:54:33;;;;;;;;;8.00;3.67;;;;;20.85;89.45;101438.81;5015368;28;45362;-73
2022/08/21 00:57:02;;;;;;;;;2.00;2.00;;;;;20.78;89.56;101438.06;5014529;28;45408;-76
2022/08/21 00:59:29;;;;;;;;;6.33;3.00;;;;;20.81;89.81;101451.41;5015269;28;45437;-75
2022/08/21 01:01:54;;;;;;;;;5.33;4.67;;;;;20.63;90.50;101424.97;5015598;28;46652;-72
2022/08/21 01:04:20;;;;;;;;;4.00;4.00;;;;;20.74;90.32;101452.47;5015494;28;45907;-76
2022/08/21 01:06:46;;;;;;;;;3.33;2.00;;;;;20.74;90.99;101457.81;5018993;28;45561;-74
2022/08/21 01:09:13;;;;;;;;;3.33;3.33;;;;;20.70;91.50;101455.25;5014621;28;45383;-71
2022/08/21 01:11:39;;;;;;;;;5.00;3.67;;;;;20.68;91.99;101455.28;5012496;28;62590;-73
2022/08/21 01:14:04;;;;;;;;;3.00;3.00;;;;;20.60;92.06;101443.81;5014918;28;45161;-72
2022/08/21 01:16:30;;;;;;;;;4.33;4.33;;;;;20.55;92.47;101446.56;5015040;28;45652;-75
2022/08/21 01:18:56;;;;;;;;;4.33;2.67;;;;;20.53;92.87;101444.84;5015085;28;45507;-72
2022/08/21 01:21:24;;;;;;;;;5.33;2.00;;;;;20.48;93.81;101444.94;5014564;28;68613;-75
2022/08/21 01:23:52;;;;;;;;;7.00;4.00;;;;;20.45;93.57;101452.13;5013169;28;45359;-72
2022/08/21 01:26:22;;;;;;;;;5.00;4.00;;;;;20.40;94.23;101452.25;5015120;28;45441;-74
2022/08/21 01:28:57;;;;;;;;;3.67;3.33;;;;;20.40;94.54;101453.13;5015773;28;45489;-73
2022/08/21 01:31:24;;;;;;;;;7.33;4.00;;;;;20.33;95.13;101447.91;5018510;28;46886;-76
2022/08/21 01:33:50;;;;;;;;;6.00;4.00;;;;;20.29;95.80;101457.78;5018311;28;45855;-74
2022/08/21 01:36:15;;;;;;;;;4.67;3.67;;;;;20.31;95.73;101457.78;5018701;28;45515;-73
2022/08/21 01:38:41;;;;;;;;;4.33;4.33;;;;;20.23;96.34;101444.50;5017633;28;63041;-72
2022/08/21 01:41:06;;;;;;;;;5.00;4.00;;;;;20.25;96.94;101463.25;5018469;28;47614;-73
2022/08/21 01:43:32;;;;;;;;;5.00;5.00;;;;;20.17;96.77;101457.16;5018262;28;45696;-72
2022/08/21 01:45:57;;;;;;;;;3.00;3.00;;;;;20.11;97.04;101456.34;5018298;28;47548;-73
2022/08/21 01:48:22;;;;;;;;;10.00;4.33;;;;;20.14;97.35;101455.41;5017925;28;51693;-74
2022/08/21 01:50:48;;;;;;;;;4.00;4.00;;;;;20.05;97.56;101451.09;5017255;28;63460;-73
2022/08/21 01:53:15;;;;;;;;;5.33;3.33;;;;;20.07;98.41;101461.78;5017402;28;61109;-71
2022/08/21 01:55:41;;;;;;;;;6.67;4.33;;;;;19.99;98.05;101444.97;5018087;28;45714;-71
2022/08/21 01:58:06;;;;;;;;;7.33;4.33;;;;;20.02;99.03;101451.16;5018087;28;45551;-74
2022/08/21 02:00:31;;;;;;;;;5.00;4.00;;;;;19.94;99.12;101445.06;5015466;28;66302;-72
2022/08/21 02:02:57;;;;;;;;;5.67;3.67;;;;;19.97;99.56;101450.34;5017395;28;61978;-71
2022/08/21 02:05:22;;;;;;;;;5.00;3.33;;;;;19.93;99.91;101442.41;5021270;28;56800;-74
2022/08/21 02:07:50;;;;;;;;;6.67;4.67;;;;;19.91;99.57;101450.47;5018141;28;45532;-73
2022/08/21 02:10:23;;;;;;;;;5.00;4.33;;;;;19.90;100.00;101446.00;5017981;28;46462;-73
2022/08/21 02:12:49;;;;;;;;;6.67;4.33;;;;;19.82;100.00;101430.09;5016806;28;45528;-73
2022/08/21 02:15:14;;;;;;;;;5.67;4.67;;;;;19.83;100.00;101437.19;5017082;28;45592;-74
2022/08/21 02:17:47;;;;;;;;;7.67;4.33;;;;;19.83;100.00;101441.69;5017534;28;46637;-72
2022/08/21 02:20:18;;;;;;;;;4.33;3.67;;;;;19.79;100.00;101443.53;5013345;28;46662;-74
2022/08/21 02:22:44;;;;;;;;;7.00;4.33;;;;;19.75;100.00;101431.06;5016197;28;45443;-73
2022/08/21 02:25:09;;;;;;;;;8.33;4.33;;;;;19.76;100.00;101440.91;5017846;28;45433;-75
2022/08/21 02:27:42;;;;;;;;;6.67;4.00;;;;;19.74;100.00;101445.41;5016482;28;61207;-73
2022/08/21 02:30:11;;;;;;;;;3.33;3.33;;;;;19.65;100.00;101429.47;5017315;28;47298;-73
2022/08/21 02:32:37;;;;;;;;;7.00;4.33;;;;;19.68;100.00;101448.19;5019109;28;45409;-73
2022/08/21 02:35:02;;;;;;;;;4.00;4.00;;;;;19.60;100.00;101423.31;5017327;28;45530;-76
2022/08/21 02:37:28;;;;;;;;;6.33;5.00;;;;;19.63;100.00;101442.00;5017962;28;45277;-76
2022/08/21 02:39:53;;;;;;;;;4.00;3.33;;;;;19.60;100.00;101434.94;5023713;28;45684;-73
2022/08/21 02:42:19;;;;;;;;;7.33;5.00;;;;;19.58;100.00;101443.84;5016661;28;64480;-73
2022/08/21 02:44:44;;;;;;;;;6.67;5.00;;;;;19.56;100.00;101448.34;5033063;28;45423;-74
2022/08/21 02:47:09;;;;;;;;;5.67;5.33;;;;;19.48;100.00;101436.88;5016665;28;58485;-74
2022/08/21 02:49:35;;;;;;;;;5.33;5.33;;;;;19.49;100.00;101447.53;5016725;28;70020;-73
2022/08/21 02:52:00;;;;;;;;;5.67;5.00;;;;;19.42;100.00;101431.63;5016545;28;47164;-73
2022/08/21 02:54:25;;;;;;;;;6.67;5.00;;;;;19.38;100.00;101434.31;5016544;28;57988;-75
2022/08/21 02:56:51;;;;;;;;;5.67;5.33;;;;;19.43;100.00;101442.28;5016544;28;54184;-73
2022/08/21 02:59:16;;;;;;;;;7.67;4.67;;;;;19.35;100.00;101429.03;5017087;28;45837;-72
2022/08/21 03:01:42;;;;;;;;;6.67;6.33;;;;;19.34;100.00;101421.91;5017332;28;45270;-72
2022/08/21 03:04:07;;;;;;;;;7.00;4.00;;;;;19.34;100.00;101437.09;5017001;28;45343;-73
2022/08/21 03:06:33;;;;;;;;;8.00;6.00;;;;;19.38;100.00;101437.00;5020356;28;58025;-73
2022/08/21 03:08:58;;;;;;;;;6.00;4.00;;;;;19.38;100.00;101444.16;5017201;28;46689;-73
2022/08/21 03:11:24;;;;;;;;;8.00;7.00;;;;;19.32;100.00;101439.78;5016782;28;45461;-74
2022/08/21 03:13:49;;;;;;;;;5.33;5.33;;;;;19.35;100.00;101445.09;5016652;28;49180;-73
2022/08/21 03:16:14;;;;;;;;;6.00;6.00;;;;;19.35;100.00;101436.19;5015958;28;62437;-73
2022/08/21 03:18:40;;;;;;;;;5.33;5.33;;;;;19.27;100.00;101428.25;5017037;28;45936;-73
2022/08/21 03:21:06;;;;;;;;;7.33;5.67;;;;;19.33;100.00;101436.22;5016835;28;45420;-72
2022/08/21 03:23:31;;;;;;;;;7.00;6.00;;;;;19.32;100.00;101437.09;5016388;28;45350;-73
2022/08/21 03:25:57;;;;;;;;;8.67;5.33;;;;;19.32;100.00;101433.53;5016442;28;45448;-74
2022/08/21 03:28:23;;;;;;;;;7.67;6.00;;;;;19.30;100.00;101432.69;5016535;28;47240;-73
2022/08/21 03:30:50;;;;;;;;;5.67;5.33;;;;;19.24;100.00;101422.97;5016437;28;48557;-74
2022/08/21 03:33:17;;;;;;;;;7.00;5.67;;;;;19.23;100.00;101413.19;5017073;28;45505;-73
2022/08/21 03:35:43;;;;;;;;;5.33;5.33;;;;;19.25;100.00;101413.13;5015317;28;45609;-73
2022/08/21 03:38:09;;;;;;;;;6.00;5.00;;;;;19.26;100.00;101402.41;5015404;28;45562;-72
2022/08/21 03:40:34;;;;;;;;;6.00;5.33;;;;;19.25;100.00;101399.75;5015985;28;45411;-73
2022/08/21 03:42:59;;;;;;;;;7.00;5.33;;;;;19.19;100.00;101389.16;5016141;28;46694;-73
2022/08/21 03:45:25;;;;;;;;;6.00;4.00;;;;;19.22;100.00;101392.63;5016383;28;48768;-73
2022/08/21 03:47:55;;;;;;;;;7.00;5.00;;;;;19.17;100.00;101380.22;5014890;28;45708;-75
2022/08/21 03:50:22;;;;;;;;;7.67;5.67;;;;;19.16;100.00;101381.16;5016586;28;45207;-72
2022/08/21 03:52:47;;;;;;;;;7.33;7.00;;;;;19.18;100.00;101390.94;5015373;28;45226;-71
2022/08/21 03:55:13;;;;;;;;;7.00;4.67;;;;;19.16;100.00;101395.41;5016441;28;45352;-73
2022/08/21 03:57:38;;;;;;;;;7.33;5.00;;;;;19.14;100.00;101397.25;5015401;28;66483;-71
2022/08/21 04:00:04;;;;;;;;;7.33;4.00;;;;;19.06;100.00;101391.97;5016419;28;45424;-73
2022/08/21 04:02:30;;;;;;;;;5.33;5.33;;;;;19.05;100.00;101392.03;5016360;28;45488;-73
2022/08/21 04:04:55;;;;;;;;;6.00;4.67;;;;;19.01;100.00;101385.81;5015649;28;45687;-73
2022/08/21 04:07:21;;;;;;;;;5.33;3.00;;;;;18.97;100.00;101376.09;5015037;28;70789;-73
2022/08/21 04:09:46;;;;;;;;;7.33;6.00;;;;;19.01;100.00;101387.63;5015464;28;64428;-72
2022/08/21 04:12:11;;;;;;;;;11.33;6.00;;;;;18.95;100.00;101380.56;5014240;28;62558;-75
2022/08/21 04:14:37;;;;;;;;;9.67;5.33;;;;;18.98;100.00;101396.59;5015413;28;56168;-73
2022/08/21 04:17:02;;;;;;;;;9.33;7.00;;;;;18.96;100.00;101398.41;5016170;28;47482;-72
2022/08/21 04:19:27;;;;;;;;;8.33;6.00;;;;;18.90;100.00;101390.44;5018130;28;45507;-72
2022/08/21 04:21:53;;;;;;;;;6.00;6.00;;;;;18.93;100.00;101409.16;5016849;28;45279;-72
2022/08/21 04:24:19;;;;;;;;;11.00;6.67;;;;;18.87;100.00;101405.69;5014939;28;45308;-74
2022/08/21 04:26:44;;;;;;;;;6.67;5.00;;;;;18.84;100.00;101412.81;5015777;28;45912;-72
2022/08/21 04:29:09;;;;;;;;;7.67;6.67;;;;;18.82;100.00;101405.75;5015611;28;45275;-74
2022/08/21 04:31:39;;;;;;;;;8.33;6.00;;;;;18.81;100.00;101412.00;5015165;28;59467;-73
2022/08/21 04:34:04;;;;;;;;;7.00;6.00;;;;;18.82;100.00;101416.44;5018995;28;45322;-71
2022/08/21 04:36:31;;;;;;;;;6.67;6.00;;;;;18.76;100.00;101417.41;5019632;28;47213;-72
2022/08/21 04:38:56;;;;;;;;;11.33;5.33;;;;;18.79;100.00;101427.16;5014999;28;45528;-73
2022/08/21 04:41:22;;;;;;;;;7.00;5.00;;;;;18.75;100.00;101420.09;5015651;28;45903;-75
2022/08/21 04:43:47;;;;;;;;;8.00;6.33;;;;;18.75;100.00;101425.44;5015911;28;45664;-74
2022/08/21 04:46:13;;;;;;;;;6.33;6.33;;;;;18.73;100.00;101429.94;5014560;28;67815;-72
2022/08/21 04:48:38;;;;;;;;;9.67;7.00;;;;;18.67;100.00;101419.28;5015242;28;45610;-73
2022/08/21 04:51:13;;;;;;;;;10.33;7.00;;;;;18.70;100.00;101433.56;5016070;28;50323;-71
2022/08/21 04:53:43;;;;;;;;;9.33;7.00;;;;;18.67;100.00;101430.88;5015386;28;45481;-73
2022/08/21 04:56:12;;;;;;;;;7.00;7.00;;;;;18.64;100.00;101424.66;5013852;28;46554;-73
2022/08/21 04:58:38;;;;;;;;;10.00;7.33;;;;;18.61;100.00;101424.72;5015368;28;45366;-75
2022/08/21 05:01:07;;;;;;;;;6.67;6.67;;;;;18.64;100.00;101433.56;5015773;28;45313;-73
2022/08/21 05:03:35;;;;;;;;;10.67;8.67;;;;;18.58;100.00;101431.84;5015902;28;45583;-72
2022/08/21 05:06:03;;;;;;;;;10.67;7.67;;;;;18.55;100.00;101426.56;5023723;28;46262;-73
2022/08/21 05:08:29;;;;;;;;;8.33;8.00;;;;;18.60;100.00;101437.22;5018752;28;45505;-73
2022/08/21 05:10:55;;;;;;;;;10.00;8.33;;;;;18.52;100.00;101420.34;5018642;28;58847;-73
2022/08/21 05:13:20;;;;;;;;;8.67;7.33;;;;;18.57;100.00;101432.78;5034051;28;55458;-72
2022/08/21 05:15:46;;;;;;;;;6.00;6.00;;;;;18.51;100.00;101413.25;5000900;28;46346;-74
2022/08/21 05:18:11;;;;;;;;;9.33;7.00;;;;;18.52;100.00;101420.34;5018291;28;65201;-74
2022/08/21 05:20:37;;;;;;;;;8.33;7.00;;;;;18.51;100.00;101411.44;5018966;28;45289;-72
2022/08/21 05:23:10;;;;;;;;;10.33;8.33;;;;;18.55;100.00;101425.69;5017504;28;57574;-73
2022/08/21 05:25:35;;;;;;;;;8.00;5.00;;;;;18.50;100.00;101417.72;5018605;28;45895;-73
2022/08/21 05:28:01;;;;;;;;;7.00;7.00;;;;;18.50;100.00;101424.84;5018088;28;46054;-72
2022/08/21 05:30:26;;;;;;;;;7.00;6.67;;;;;18.49;100.00;101428.44;5018702;28;45456;-73
2022/08/21 05:32:57;;;;;;;;;10.00;7.00;;;;;18.47;100.00;101425.75;5018427;28;45438;-72
2022/08/21 05:35:22;;;;;;;;;9.67;8.00;;;;;18.49;100.00;101432.00;5018451;28;47330;-73
2022/08/21 05:37:47;;;;;;;;;7.67;7.00;;;;;18.52;100.00;101431.94;5018078;28;45333;-74
2022/08/21 05:40:13;;;;;;;;;8.00;6.33;;;;;18.48;100.00;101430.22;5017930;28;65019;-72
2022/08/21 05:42:39;;;;;;;;;6.00;6.00;;;;;18.52;100.00;101436.41;5018398;28;45434;-76
2022/08/21 05:45:05;;;;;;;;;7.00;6.00;;;;;18.54;100.00;101439.97;5017983;28;46417;-73
2022/08/21 05:47:30;;;;;;;;;9.33;6.33;;;;;18.50;100.00;101427.53;5018548;28;45439;-73
2022/08/21 05:49:55;;;;;;;;;8.33;6.33;;;;;18.50;100.00;101428.41;5017175;28;59391;-75
2022/08/21 05:52:21;;;;;;;;;6.00;5.00;;;;;18.57;100.00;101434.56;5018263;28;60083;-73
2022/08/21 05:54:47;;;;;;;;;6.67;6.67;;;;;18.57;100.00;101440.78;5017833;28;47160;-72
2022/08/21 05:57:12;;;;;;;;;9.00;7.33;;;;;18.60;100.00;101442.56;5018013;28;45222;-72
2022/08/21 05:59:37;;;;;;;;;7.00;5.67;;;;;18.59;100.00;101432.78;5017470;28;59314;-73
2022/08/21 06:02:04;;;;;;;;;8.67;6.67;;;;;18.58;100.00;101433.66;5017315;28;60448;-73
2022/08/21 06:04:29;;;;;;;;;8.00;7.00;;;;;18.66;100.00;101445.16;5017491;28;45475;-74
2022/08/21 06:06:55;;;;;;;;;12.33;9.00;;;;;18.62;100.00;101430.03;5020847;28;63395;-72
2022/08/21 06:09:20;;;;;;;;;8.00;7.00;;;;;18.67;100.00;101433.53;5016949;28;58020;-73
2022/08/21 06:11:46;;;;;;;;;7.00;7.00;;;;;18.66;100.00;101423.75;5018351;28;45362;-73
2022/08/21 06:14:14;;;;;;;;;9.00;8.00;;;;;18.77;100.00;101437.91;5017550;28;46623;-73
2022/08/21 06:16:39;;;;;;;;;9.67;8.00;;;;;18.79;100.00;101437.88;5013074;28;45306;-74
2022/08/21 06:19:05;;;;;;;;;11.00;10.00;;;;;18.88;100.00;101444.91;5017500;28;56965;-73
2022/08/21 06:21:30;;;;;;;;;5.33;5.33;;;;;18.88;100.00;101420.81;5017484;28;45370;-74
2022/08/21 06:23:55;;;;;;;;;11.00;6.00;;;;;18.99;100.00;101432.25;5016420;28;45515;-74
2022/08/21 06:26:21;;;;;;;;;12.00;11.00;;;;;19.05;100.00;101429.50;5016403;28;62328;-73
2022/08/21 06:28:47;;;;;;;;;10.67;8.00;;;;;19.06;100.00;101421.44;5017335;28;45493;-72
2022/08/21 06:31:18;;;;;;;;;10.67;10.33;;;;;19.17;100.00;101429.31;5017944;28;45504;-73
2022/08/21 06:33:44;;;;;;;;;13.33;9.00;;;;;19.25;100.00;101435.44;5017303;28;47566;-75
2022/08/21 06:36:10;;;;;;;;;14.00;11.33;;;;;19.32;100.00;101437.09;5016958;28;45561;-73
2022/08/21 06:38:36;;;;;;;;;9.33;8.33;;;;;19.37;100.00;101420.97;5017498;28;45346;-73
2022/08/21 06:41:02;;;;;;;;;9.00;7.33;;;;;19.52;100.00;101420.72;5017505;28;45541;-73
2022/08/21 06:43:27;;;;;;;;;10.00;10.00;;;;;19.60;100.00;101417.94;5017099;28;45513;-72
2022/08/21 06:45:53;;;;;;;;;13.00;8.00;;;;;19.68;100.00;101402.63;5017329;28;45391;-72
2022/08/21 06:48:18;;;;;;;;;14.33;8.00;;;;;19.71;100.00;101397.22;5016474;28;62767;-72
2022/08/21 06:50:44;;;;;;;;;11.00;8.00;;;;;19.78;100.00;101401.56;5017604;28;45432;-71
2022/08/21 06:53:11;;;;;;;;;10.67;9.33;;;;;19.83;100.00;101402.38;5016258;28;67304;-72
2022/08/21 06:55:38;;;;;;;;;8.33;7.67;;;;;19.93;100.00;101405.75;5017242;28;45621;-73
2022/08/21 06:58:04;;;;;;;;;16.33;9.67;;;;;19.96;100.00;101407.50;5016016;28;45553;-73
2022/08/21 07:00:30;;;;;;;;;9.67;9.67;;;;;20.04;100.00;101402.88;5017381;28;45556;-73
2022/08/21 07:02:56;;;;;;;;;13.67;9.00;;;;;20.11;100.00;101402.72;5022312;28;45889;-73
2022/08/21 07:05:22;;;;;;;;;11.33;9.33;;;;;20.17;100.00;101400.84;5016002;28;47067;-71
2022/08/21 07:07:47;;;;;;;;;10.00;9.00;;;;;20.17;100.00;101391.00;5015959;28;45493;-72
2022/08/21 07:10:14;;;;;;;;;9.33;8.00;;;;;20.27;100.00;101405.09;5015788;28;62054;-72
2022/08/21 07:12:39;;;;;;;;;7.33;7.33;;;;;20.30;100.00;101403.25;5016917;28;46227;-74
2022/08/21 07:15:05;;;;;;;;;7.67;6.67;;;;;20.28;100.00;101397.03;5015328;28;63884;-73
2022/08/21 07:17:30;;;;;;;;;9.33;8.00;;;;;20.34;100.00;101396.00;5017412;28;45445;-71
2022/08/21 07:19:57;;;;;;;;;10.00;7.00;;;;;20.36;100.00;101396.88;5017150;28;57695;-74
2022/08/21 07:22:22;;;;;;;;;11.33;8.33;;;;;20.35;100.00;101395.13;5014402;28;45567;-73
2022/08/21 07:24:47;;;;;;;;;12.67;8.00;;;;;20.40;100.00;101393.22;5014719;28;63615;-74
2022/08/21 07:27:13;;;;;;;;;10.67;8.00;;;;;20.34;100.00;101386.16;5158156;22;45535;-72
2022/08/21 07:29:38;;;;;;;;;14.33;8.00;;;;;20.52;100.00;101395.69;5047095;28;45415;-72
2022/08/21 07:32:04;;;;;;;;;10.33;7.67;;;;;20.66;100.00;101403.41;5053862;28;57014;-72
2022/08/21 07:34:29;;;;;;;;;11.33;8.33;;;;;20.76;100.00;101398.75;5055232;28;45328;-72
2022/08/21 07:36:55;;;;;;;;;9.00;7.00;;;;;20.81;100.00;101383.41;5038042;28;50788;-72
2022/08/21 07:39:20;;;;;;;;;14.00;10.00;;;;;20.95;100.00;101393.84;5047333;28;45588;-74
2022/08/21 07:41:46;;;;;;;;;10.33;8.67;;;;;21.00;100.00;101382.09;5053852;28;46713;-72
2022/08/21 07:44:11;;;;;;;;;10.33;9.33;;;;;21.13;100.00;101396.09;5055942;28;66550;-72
2022/08/21 07:46:38;;;;;;;;;8.33;7.67;;;;;21.23;100.00;101396.78;5057518;28;45422;-72
2022/08/21 07:49:03;;;;;;;;;11.67;10.00;;;;;21.27;100.00;101388.59;5057109;28;45473;-74
2022/08/21 07:51:29;;;;;;;;;9.00;8.67;;;;;21.34;100.00;101384.00;5051074;28;46272;-72
2022/08/21 07:53:56;;;;;;;;;9.00;9.00;;;;;21.50;100.00;101389.88;5038730;28;45507;-71
2022/08/21 07:56:22;;;;;;;;;14.67;8.33;;;;;21.60;100.00;101394.09;5028136;28;45429;-74
2022/08/21 07:58:47;;;;;;;;;11.00;9.67;;;;;21.69;100.00;101396.53;5052451;28;45344;-72
2022/08/21 08:01:13;;;;;;;;;12.33;7.67;;;;;21.80;100.00;101386.38;5054595;28;55711;-72
2022/08/21 08:03:39;;;;;;;;;10.00;8.00;;;;;21.84;100.00;101380.00;5047900;28;45345;-72
2022/08/21 08:06:04;;;;;;;;;13.00;8.00;;;;;21.96;100.00;101387.75;5047024;28;59806;-74
2022/08/21 08:08:31;;;;;;;;;11.33;7.67;;;;;22.00;100.00;101371.50;5048802;28;45592;-74
2022/08/21 08:10:58;;;;;;;;;10.00;9.00;;;;;22.11;100.00;101374.84;5051743;28;45874;-73
2022/08/21 08:13:23;;;;;;;;;7.33;7.33;;;;;22.19;100.00;101370.97;5052304;28;45910;-73
2022/08/21 08:15:49;;;;;;;;;12.00;9.00;;;;;22.26;100.00;101370.81;5043692;28;45296;-71
2022/08/21 08:18:14;;;;;;;;;11.67;10.00;;;;;22.34;100.00;101368.78;5043218;28;50321;-71
2022/08/21 08:20:40;;;;;;;;;10.67;9.00;;;;;22.41;100.00;101367.66;5045211;28;46427;-74
2022/08/21 08:23:06;;;;;;;;;12.00;9.00;;;;;22.54;100.00;101373.59;5045602;28;45572;-72
2022/08/21 08:25:32;;;;;;;;;8.67;5.00;;;;;22.62;100.00;101374.22;5027983;28;45677;-73
2022/08/21 08:27:57;;;;;;;;;10.67;8.33;;;;;22.63;100.00;101363.41;5024170;28;45824;-71
2022/08/21 08:30:23;;;;;;;;;7.00;7.00;;;;;22.69;100.00;101368.63;5025171;28;59828;-74
2022/08/21 08:32:49;;;;;;;;;7.00;7.00;;;;;22.64;100.00;101354.41;5017510;28;45262;-70
2022/08/21 08:35:15;;;;;;;;;10.67;7.67;;;;;22.69;100.00;101357.84;5024905;28;45446;-74
2022/08/21 08:37:42;;;;;;;;;7.67;6.67;;;;;22.83;100.00;101372.69;5032882;28;45638;-71
2022/08/21 08:40:13;;;;;;;;;11.00;8.67;;;;;22.89;100.00;101373.41;5026469;28;45743;-71
2022/08/21 08:42:38;;;;;;;;;5.33;5.33;;;;;22.95;100.00;101367.81;5032808;28;45548;-70
2022/08/21 08:45:13;;;;;;;;;8.67;7.67;;;;;23.03;100.00;101364.00;5030856;28;45616;-72
2022/08/21 08:47:42;;;;;;;;;6.67;5.00;;;;;23.06;100.00;101356.69;5034468;28;45634;-72
2022/08/21 08:50:21;;;;;;;;;6.33;6.00;;;;;23.17;100.00;101361.72;5032794;28;46334;-72
2022/08/21 08:53:00;;;;;;;;;8.00;6.00;;;;;23.30;98.97;101356.84;5019073;28;45304;-72
2022/08/21 08:55:34;;;;;;;;;9.00;7.00;;;;;23.35;98.86;101352.19;5044857;28;46372;-71
2022/08/21 08:57:59;;;;;;;;;8.33;6.00;;;;;23.43;98.17;101364.44;5030399;28;45288;-70
2022/08/21 09:00:25;;;;;;;;;5.33;5.33;;;;;23.44;97.77;101352.75;5022460;28;45669;-72
2022/08/21 09:02:56;;;;;;;;;8.67;5.00;;;;;23.46;97.28;101340.09;5015271;28;63427;-71
2022/08/21 09:05:25;;;;;;;;;12.67;6.33;;;;;23.57;97.15;101344.22;5022140;28;45542;-70
2022/08/21 09:08:09;;;;;;;;;5.33;4.67;;;;;23.60;96.64;101339.63;5023893;28;45523;-72
2022/08/21 09:10:39;;;;;;;;;8.67;5.00;;;;;23.66;96.18;101343.94;5021944;28;46348;-70
2022/08/21 09:13:19;;;;;;;;;8.33;6.00;;;;;23.67;95.36;101329.53;5021814;28;45488;-70
2022/08/21 09:15:56;;;;;;;;;7.00;6.33;;;;;23.78;95.39;101330.91;5022605;28;45425;-71
2022/08/21 09:18:34;;;;;;;;;9.00;6.00;;;;;23.83;94.75;101332.56;5026363;28;45645;-70
2022/08/21 09:21:18;;;;;;;;;7.33;7.33;;;;;23.77;94.92;101315.66;5028819;28;46743;-70
2022/08/21 09:23:47;;;;;;;;;9.00;4.33;;;;;23.82;93.85;101318.19;5025553;28;45584;-71
2022/08/21 09:26:18;;;;;;;;;4.67;4.33;;;;;23.79;94.44;101324.56;5024874;28;45309;-70
2022/08/21 09:28:46;;;;;;;;;5.33;5.33;;;;;23.79;94.16;101319.16;5049781;28;45578;-70
2022/08/21 09:31:32;;;;;;;;;5.33;4.00;;;;;23.77;93.35;101326.44;5042392;28;47336;-71
2022/08/21 09:34:03;;;;;;;;;6.33;4.33;;;;;23.75;92.85;101327.44;5049104;28;45471;-71
2022/08/21 09:36:40;;;;;;;;;4.67;4.67;;;;;23.72;92.27;101325.72;5045834;28;45545;-71
2022/08/21 09:39:07;;;;;;;;;5.33;4.00;;;;;23.74;91.47;101322.97;5026147;28;45511;-70
2022/08/21 09:41:37;;;;;;;;;7.33;5.00;;;;;23.75;93.00;101324.72;5048580;28;47445;-69
2022/08/21 09:44:04;;;;;;;;;6.00;6.00;;;;;23.83;92.00;101322.66;5054139;28;45460;-69
2022/08/21 09:46:30;;;;;;;;;4.33;4.33;;;;;23.93;91.85;101334.88;5041428;28;45526;-70
2022/08/21 09:48:59;;;;;;;;;4.67;4.67;;;;;23.97;91.29;101323.03;5046391;28;45520;-71
2022/08/21 09:51:33;;;;;;;;;6.67;3.00;;;;;24.05;91.73;101325.44;5050562;28;47097;-70
2022/08/21 09:54:05;;;;;;;;;4.00;4.00;;;;;24.17;91.04;101326.78;5027839;28;45713;-70
2022/08/21 09:59:31;;;;;;;;;6.67;4.00;;;;;24.36;88.99;101298.22;5042980;28;45588;-70
2022/08/21 10:02:00;;;;;;;;;6.00;3.33;;;;;24.54;88.79;101302.00;5042619;28;46168;-70
2022/08/21 10:04:31;;;;;;;;;6.00;4.00;;;;;24.65;87.11;101301.56;5053372;28;45447;-70
2022/08/21 10:07:08;;;;;;;;;5.00;5.00;;;;;24.74;86.87;101298.50;5051919;28;45962;-70
2022/08/21 10:09:34;;;;;;;;;3.67;3.33;;;;;24.80;85.84;101290.16;5054165;28;45624;-70
2022/08/21 10:12:18;;;;;;;;;2.00;2.00;;;;;24.82;82.74;101288.25;5041045;28;45601;-72
2022/08/21 10:15:02;;;;;;;;;5.67;3.00;;;;;24.83;81.81;101285.50;5047450;28;45523;-72
2022/08/21 10:17:45;;;;;;;;;7.00;5.00;;;;;24.83;81.60;101284.63;5036294;28;45587;-71
2022/08/21 10:20:17;;;;;;;;;4.00;4.00;;;;;24.77;82.15;101271.38;5027815;28;46361;-70
2022/08/21 10:23:14;;;;;;;;;4.00;4.00;;;;;24.86;82.10;101276.38;5023120;28;46820;-71
2022/08/21 10:25:50;;;;;;;;;6.00;3.00;;;;;24.87;82.48;101261.06;5028949;28;45348;-72
2022/08/21 10:28:23;;;;;;;;;4.00;3.00;;;;;24.84;81.99;101259.38;5054830;28;45552;-71
2022/08/21 10:30:56;;;;;;;;;3.00;3.00;;;;;24.87;79.79;101259.22;5021965;28;45601;-71
2022/08/21 10:33:24;;;;;;;;;4.00;4.00;;;;;24.96;78.65;101269.66;5018870;28;45684;-71
2022/08/21 10:35:57;;;;;;;;;4.33;3.00;;;;;25.02;78.66;101268.53;5046205;28;45508;-71
2022/08/21 10:38:46;;;;;;;;;8.00;4.00;;;;;25.08;78.09;101277.28;5032479;28;45318;-71
2022/08/21 10:41:39;;;;;;;;;5.00;5.00;;;;;25.11;76.82;101262.78;5031712;28;45589;-72
2022/08/21 10:44:07;;;;;;;;;6.00;4.00;;;;;25.25;77.65;101256.78;5057282;28;47200;-70
2022/08/21 10:46:38;;;;;;;;;4.67;4.67;;;;;25.36;78.68;101243.69;5057168;28;45400;-70
2022/08/21 10:49:40;;;;;;;;;6.00;4.67;;;;;25.48;78.01;101235.00;5056327;28;45351;-70
2022/08/21 10:52:37;;;;;;;;;6.67;5.00;;;;;25.57;77.48;101234.59;5037062;28;45500;-71
2022/08/21 10:55:14;;;;;;;;;9.00;6.67;;;;;25.66;75.69;101238.69;4999952;28;46262;-72
2022/08/21 10:57:49;;;;;;;;;4.00;3.33;;;;;25.71;76.23;101243.91;5045930;28;45417;-71
2022/08/21 11:00:30;;;;;;;;;6.00;3.00;;;;;25.75;75.40;101246.44;5055951;28;45261;-70
2022/08/21 11:03:05;;;;;;;;;3.00;3.00;;;;;25.76;75.32;101240.06;5038119;28;45442;-72
2022/08/21 11:05:42;;;;;;;;;4.67;4.67;;;;;25.80;74.90;101241.69;5029053;28;45414;-73
2022/08/21 11:08:27;;;;;;;;;4.67;4.67;;;;;25.88;74.67;101262.97;5035752;28;45290;-72
2022/08/21 11:11:15;;;;;;;;;6.00;3.00;;;;;25.93;75.03;101257.38;5032409;28;45523;-72
2022/08/21 11:13:47;;;;;;;;;4.00;4.00;;;;;25.90;74.54;101247.56;5044908;28;45220;-71
2022/08/21 11:16:41;;;;;;;;;4.67;4.33;;;;;25.91;74.62;101252.03;5034780;28;47592;-70
2022/08/21 11:19:28;;;;;;;;;6.67;5.00;;;;;25.94;75.54;101265.44;5022105;28;45449;-72
2022/08/21 11:22:00;;;;;;;;;11.00;9.00;;;;;25.98;74.41;101271.56;5039313;28;45381;-71
2022/08/21 11:24:28;;;;;;;;;10.33;6.33;;;;;26.06;71.53;101266.69;5022046;28;45430;-72
2022/08/21 11:27:06;;;;;;;;;8.00;5.00;;;;;26.20;70.21;101263.31;5049483;28;45511;-71